sensor_id;sensor_type;location;lat;lon;timestamp;pressure;altitude;pressure_sealevel;temperature;humidity
26775;BME280;14362;51.902;7.626;2022-09-09T00:02:55;100223.06;;;17.30;100.00
26775;BME280;14362;51.902;7.626;2022-09-09T00:07:05;100225.91;;;17.30;100.00
26775;BME280;14362;51.902;7.626;2022-09-09T00:11:10;100225.59;;;17.35;100.00
26775;BME280;14362;51.902;7.626;2022-09-09T00:15:19;100209.53;;;17.39;100.00
26775;BME280;14362;51.902;7.626;2022-09-09T00:19:24;100216.88;;;17.43;100.00
26775;BME280;14362;51.902;7.626;2022-09-09T00:23:32;100220.44;;;17.40;100.00
26775;BME280;14362;51.902;7.626;2022-09-09T00:27:40;100219.25;;;17.41;100.00
26775;BME280;14362;51.902;7.626;2022-09-09T00:31:44;100216.75;;;17.36;100.00
26775;BME280;14362;51.902;7.626;2022-09-09T00:35:48;100219.09;;;17.31;100.00
26775;BME280;14362;51.902;7.626;2022-09-09T00:39:51;100206.91;;;17.23;100.00
26775;BME280;14362;51.902;7.626;2022-09-09T00:43:57;100211.69;;;17.23;100.00
26775;BME280;14362;51.902;7.626;2022-09-09T00:48:06;100203.56;;;17.18;100.00
26775;BME280;14362;51.902;7.626;2022-09-09T00:52:22;100203.09;;;17.12;100.00
26775;BME280;14362;51.902;7.626;2022-09-09T00:56:35;100206.25;;;17.07;100.00
26775;BME280;14362;51.902;7.626;2022-09-09T01:00:44;100204.63;;;17.06;100.00
26775;BME280;14362;51.902;7.626;2022-09-09T01:04:48;100201.31;;;17.01;100.00
26775;BME280;14362;51.902;7.626;2022-09-09T01:09:04;100197.22;;;16.95;100.00
26775;BME280;14362;51.902;7.626;2022-09-09T01:13:11;100192.31;;;16.88;100.00
26775;BME280;14362;51.902;7.626;2022-09-09T01:17:19;100187.00;;;16.83;100.00
26775;BME280;14362;51.902;7.626;2022-09-09T01:21:31;100191.25;;;16.74;100.00
26775;BME280;14362;51.902;7.626;2022-09-09T01:26:09;100206.13;;;16.74;100.00
26775;BME280;14362;51.902;7.626;2022-09-09T01:30:16;100206.09;;;16.71;100.00
26775;BME280;14362;51.902;7.626;2022-09-09T01:34:19;100212.78;;;16.63;100.00
26775;BME280;14362;51.902;7.626;2022-09-09T01:38:22;100201.78;;;16.54;100.00
26775;BME280;14362;51.902;7.626;2022-09-09T01:42:25;100209.44;;;16.54;100.00
26775;BME280;14362;51.902;7.626;2022-09-09T01:46:27;100201.72;;;16.51;100.00
26775;BME280;14362;51.902;7.626;2022-09-09T01:50:30;100217.38;;;16.48;100.00
26775;BME280;14362;51.902;7.626;2022-09-09T01:54:31;100206.91;;;16.49;100.00
26775;BME280;14362;51.902;7.626;2022-09-09T01:58:44;100214.81;;;16.40;100.00
26775;BME280;14362;51.902;7.626;2022-09-09T02:02:55;100212.75;;;16.37;100.00
26775;BME280;14362;51.902;7.626;2022-09-09T02:07:00;100213.53;;;16.38;100.00
26775;BME280;14362;51.902;7.626;2022-09-09T02:11:06;100216.38;;;16.38;100.00
26775;BME280;14362;51.902;7.626;2022-09-09T02:15:15;100220.56;;;16.28;100.00
26775;BME280;14362;51.902;7.626;2022-09-09T02:19:21;100223.78;;;16.27;100.00
26775;BME280;14362;51.902;7.626;2022-09-09T02:23:26;100215.66;;;16.22;100.00
26775;BME280;14362;51.902;7.626;2022-09-09T02:27:29;100223.59;;;16.16;100.00
26775;BME280;14362;51.902;7.626;2022-09-09T02:31:34;100219.19;;;16.19;100.00
26775;BME280;14362;51.902;7.626;2022-09-09T02:35:37;100217.06;;;16.12;100.00
26775;BME280;14362;51.902;7.626;2022-09-09T02:39:39;100212.19;;;16.09;100.00
26775;BME280;14362;51.902;7.626;2022-09-09T02:43:40;100215.25;;;16.01;100.00
26775;BME280;14362;51.902;7.626;2022-09-09T02:47:46;100220.06;;;16.00;100.00
26775;BME280;14362;51.902;7.626;2022-09-09T02:51:53;100215.25;;;16.01;100.00
26775;BME280;14362;51.902;7.626;2022-09-09T02:56:04;100216.06;;;16.01;100.00
26775;BME280;14362;51.902;7.626;2022-09-09T03:00:07;100223.72;;;16.04;100.00
26775;BME280;14362;51.902;7.626;2022-09-09T03:04:11;100225.00;;;16.07;100.00
26775;BME280;14362;51.902;7.626;2022-09-09T03:08:12;100228.56;;;16.04;100.00
26775;BME280;14362;51.902;7.626;2022-09-09T03:12:14;100230.13;;;16.01;100.00
26775;BME280;14362;51.902;7.626;2022-09-09T03:16:16;100233.38;;;16.03;100.00
26775;BME280;14362;51.902;7.626;2022-09-09T03:20:19;100222.50;;;16.02;100.00
26775;BME280;14362;51.902;7.626;2022-09-09T03:24:20;100219.31;;;16.03;100.00
26775;BME280;14362;51.902;7.626;2022-09-09T03:28:22;100217.31;;;16.04;100.00
26775;BME280;14362;51.902;7.626;2022-09-09T03:32:30;100214.50;;;16.04;100.00
26775;BME280;14362;51.902;7.626;2022-09-09T03:36:33;100203.19;;;16.00;100.00
26775;BME280;14362;51.902;7.626;2022-09-09T03:40:34;100205.47;;;15.95;100.00
26775;BME280;14362;51.902;7.626;2022-09-09T03:44:36;100209.88;;;15.92;100.00
26775;BME280;14362;51.902;7.626;2022-09-09T03:48:37;100212.72;;;15.96;100.00
26775;BME280;14362;51.902;7.626;2022-09-09T03:52:40;100211.19;;;15.98;100.00
26775;BME280;14362;51.902;7.626;2022-09-09T03:56:42;100212.50;;;16.04;100.00
26775;BME280;14362;51.902;7.626;2022-09-09T04:00:43;100214.44;;;16.00;100.00
26775;BME280;14362;51.902;7.626;2022-09-09T04:04:53;100202.38;;;16.00;100.00
26775;BME280;14362;51.902;7.626;2022-09-09T04:08:56;100214.50;;;16.04;100.00
26775;BME280;14362;51.902;7.626;2022-09-09T04:12:58;100213.25;;;16.01;100.00
26775;BME280;14362;51.902;7.626;2022-09-09T04:17:00;100206.00;;;16.00;100.00
26775;BME280;14362;51.902;7.626;2022-09-09T04:21:04;100209.63;;;16.01;100.00
26775;BME280;14362;51.902;7.626;2022-09-09T04:25:08;100212.72;;;15.96;100.00
26775;BME280;14362;51.902;7.626;2022-09-09T04:29:09;100218.06;;;16.01;100.00
26775;BME280;14362;51.902;7.626;2022-09-09T04:33:11;100211.69;;;16.04;100.00
26775;BME280;14362;51.902;7.626;2022-09-09T04:37:13;100210.44;;;16.01;100.00
26775;BME280;14362;51.902;7.626;2022-09-09T04:41:16;100219.69;;;16.02;100.00
26775;BME280;14362;51.902;7.626;2022-09-09T04:45:17;100225.31;;;16.02;100.00
26775;BME280;14362;51.902;7.626;2022-09-09T04:49:19;100223.69;;;16.01;100.00
26775;BME280;14362;51.902;7.626;2022-09-09T04:53:21;100232.13;;;16.01;100.00
26775;BME280;14362;51.902;7.626;2022-09-09T04:57:24;100236.19;;;16.03;100.00
26775;BME280;14362;51.902;7.626;2022-09-09T05:01:25;100234.63;;;16.06;100.00
26775;BME280;14362;51.902;7.626;2022-09-09T05:05:27;100228.16;;;16.05;100.00
26775;BME280;14362;51.902;7.626;2022-09-09T05:09:28;100221.75;;;16.05;100.00
26775;BME280;14362;51.902;7.626;2022-09-09T05:13:31;100217.81;;;16.09;100.00
26775;BME280;14362;51.902;7.626;2022-09-09T05:17:32;100220.31;;;16.14;100.00
26775;BME280;14362;51.902;7.626;2022-09-09T05:21:34;100214.31;;;16.16;100.00
26775;BME280;14362;51.902;7.626;2022-09-09T05:25:35;100209.97;;;16.18;100.00
26775;BME280;14362;51.902;7.626;2022-09-09T05:29:38;100210.06;;;16.25;100.00
26775;BME280;14362;51.902;7.626;2022-09-09T05:33:43;100214.50;;;16.26;100.00
26775;BME280;14362;51.902;7.626;2022-09-09T05:37:46;100219.41;;;16.29;100.00
26775;BME280;14362;51.902;7.626;2022-09-09T05:41:47;100218.28;;;16.34;100.00
26775;BME280;14362;51.902;7.626;2022-09-09T05:46:00;100220.75;;;16.35;100.00
26775;BME280;14362;51.902;7.626;2022-09-09T05:50:03;100220.44;;;16.40;100.00
26775;BME280;14362;51.902;7.626;2022-09-09T05:54:05;100226.13;;;16.43;100.00
26775;BME280;14362;51.902;7.626;2022-09-09T05:58:06;100226.56;;;16.45;100.00
26775;BME280;14362;51.902;7.626;2022-09-09T06:02:09;100226.56;;;16.45;100.00
26775;BME280;14362;51.902;7.626;2022-09-09T06:06:13;100222.63;;;16.50;100.00
26775;BME280;14362;51.902;7.626;2022-09-09T06:10:14;100219.50;;;16.55;100.00
26775;BME280;14362;51.902;7.626;2022-09-09T06:14:16;100222.41;;;16.62;100.00
26775;BME280;14362;51.902;7.626;2022-09-09T06:18:19;100210.41;;;16.65;100.00
26775;BME280;14362;51.902;7.626;2022-09-09T06:22:20;100207.28;;;16.70;100.00
26775;BME280;14362;51.902;7.626;2022-09-09T06:26:23;100215.44;;;16.78;100.00
26775;BME280;14362;51.902;7.626;2022-09-09T06:30:25;100217.88;;;16.80;100.00
26775;BME280;14362;51.902;7.626;2022-09-09T06:34:28;100218.41;;;16.85;100.00
26775;BME280;14362;51.902;7.626;2022-09-09T06:38:30;100221.28;;;16.92;100.00
26775;BME280;14362;51.902;7.626;2022-09-09T06:42:31;100228.66;;;17.00;100.00
26775;BME280;14362;51.902;7.626;2022-09-09T06:46:33;100224.28;;;17.03;100.00
26775;BME280;14362;51.902;7.626;2022-09-09T06:50:37;100232.00;;;17.09;100.00
26775;BME280;14362;51.902;7.626;2022-09-09T06:54:38;100235.78;;;17.17;100.00
26775;BME280;14362;51.902;7.626;2022-09-09T06:58:40;100236.63;;;17.21;100.00
26775;BME280;14362;51.902;7.626;2022-09-09T07:02:44;100244.75;;;17.26;100.00
26775;BME280;14362;51.902;7.626;2022-09-09T07:06:46;100248.91;;;17.32;100.00
26775;BME280;14362;51.902;7.626;2022-09-09T07:10:48;100244.88;;;17.33;100.00
26775;BME280;14362;51.902;7.626;2022-09-09T07:14:49;100240.53;;;17.39;100.00
26775;BME280;14362;51.902;7.626;2022-09-09T07:18:51;100247.41;;;17.41;100.00
26775;BME280;14362;51.902;7.626;2022-09-09T07:22:59;100235.47;;;17.51;100.00
26775;BME280;14362;51.902;7.626;2022-09-09T07:27:00;100234.00;;;17.60;100.00
26775;BME280;14362;51.902;7.626;2022-09-09T07:31:04;100235.72;;;17.68;100.00
26775;BME280;14362;51.902;7.626;2022-09-09T07:35:06;100238.97;;;17.70;100.00
26775;BME280;14362;51.902;7.626;2022-09-09T07:39:11;100237.38;;;17.73;100.00
26775;BME280;14362;51.902;7.626;2022-09-09T07:43:13;100242.59;;;17.71;100.00
26775;BME280;14362;51.902;7.626;2022-09-09T07:47:18;100247.84;;;17.72;100.00
26775;BME280;14362;51.902;7.626;2022-09-09T07:51:22;100252.38;;;17.80;100.00
26775;BME280;14362;51.902;7.626;2022-09-09T07:55:25;100253.22;;;17.84;100.00
26775;BME280;14362;51.902;7.626;2022-09-09T07:59:27;100248.94;;;17.97;100.00
26775;BME280;14362;51.902;7.626;2022-09-09T08:03:30;100240.66;;;18.11;100.00
26775;BME280;14362;51.902;7.626;2022-09-09T08:07:32;100251.78;;;18.30;100.00
26775;BME280;14362;51.902;7.626;2022-09-09T08:11:35;100252.19;;;18.32;100.00
26775;BME280;14362;51.902;7.626;2022-09-09T08:15:36;100242.16;;;18.35;100.00
26775;BME280;14362;51.902;7.626;2022-09-09T08:19:38;100248.66;;;18.42;100.00
26775;BME280;14362;51.902;7.626;2022-09-09T08:23:40;100249.56;;;18.50;100.00
26775;BME280;14362;51.902;7.626;2022-09-09T08:27:43;100244.09;;;18.67;100.00
26775;BME280;14362;51.902;7.626;2022-09-09T08:31:47;100253.97;;;18.94;100.00
26775;BME280;14362;51.902;7.626;2022-09-09T08:35:52;100254.06;;;19.08;100.00
26775;BME280;14362;51.902;7.626;2022-09-09T08:39:53;100256.31;;;19.35;99.77
26775;BME280;14362;51.902;7.626;2022-09-09T08:44:02;100249.88;;;19.35;98.24
26775;BME280;14362;51.902;7.626;2022-09-09T08:48:17;100258.34;;;19.38;97.08
26775;BME280;14362;51.902;7.626;2022-09-09T08:52:26;100261.69;;;19.54;94.74
26775;BME280;14362;51.902;7.626;2022-09-09T08:56:31;100265.88;;;19.77;93.50
26775;BME280;14362;51.902;7.626;2022-09-09T09:00:42;100257.81;;;19.83;91.10
26775;BME280;14362;51.902;7.626;2022-09-09T09:04:58;100246.91;;;19.88;90.78
26775;BME280;14362;51.902;7.626;2022-09-09T09:09:07;100255.78;;;19.83;88.65
26775;BME280;14362;51.902;7.626;2022-09-09T09:13:14;100253.88;;;20.05;87.97
26775;BME280;14362;51.902;7.626;2022-09-09T09:17:19;100262.78;;;20.07;86.71
26775;BME280;14362;51.902;7.626;2022-09-09T09:21:32;100261.47;;;19.94;86.97
26775;BME280;14362;51.902;7.626;2022-09-09T09:25:38;100261.88;;;19.89;87.42
26775;BME280;14362;51.902;7.626;2022-09-09T09:29:44;100263.88;;;19.92;87.29
26775;BME280;14362;51.902;7.626;2022-09-09T09:33:49;100262.66;;;19.86;87.97
26775;BME280;14362;51.902;7.626;2022-09-09T09:37:53;100259.88;;;19.96;87.33
26775;BME280;14362;51.902;7.626;2022-09-09T09:41:54;100268.44;;;20.14;85.17
26775;BME280;14362;51.902;7.626;2022-09-09T09:45:57;100255.09;;;20.07;81.29
26775;BME280;14362;51.902;7.626;2022-09-09T09:50:00;100253.91;;;20.15;81.88
26775;BME280;14362;51.902;7.626;2022-09-09T09:54:08;100258.41;;;20.48;81.55
26775;BME280;14362;51.902;7.626;2022-09-09T09:58:15;100263.72;;;20.70;79.24
26775;BME280;14362;51.902;7.626;2022-09-09T10:02:19;100254.81;;;20.68;77.64
26775;BME280;14362;51.902;7.626;2022-09-09T10:06:31;100256.44;;;20.62;77.35
26775;BME280;14362;51.902;7.626;2022-09-09T10:10:45;100251.56;;;20.52;76.03
26775;BME280;14362;51.902;7.626;2022-09-09T10:14:58;100257.22;;;20.49;76.65
26775;BME280;14362;51.902;7.626;2022-09-09T10:19:04;100249.53;;;20.53;75.94
26775;BME280;14362;51.902;7.626;2022-09-09T10:23:17;100258.88;;;20.74;75.52
26775;BME280;14362;51.902;7.626;2022-09-09T10:27:26;100258.88;;;20.70;75.88
26775;BME280;14362;51.902;7.626;2022-09-09T10:31:38;100246.72;;;20.56;76.64
26775;BME280;14362;51.902;7.626;2022-09-09T10:35:51;100254.38;;;20.38;77.64
26775;BME280;14362;51.902;7.626;2022-09-09T10:40:02;100247.50;;;20.36;78.70
26775;BME280;14362;51.902;7.626;2022-09-09T10:44:28;100245.47;;;20.36;78.47
26775;BME280;14362;51.902;7.626;2022-09-09T10:48:42;100245.91;;;20.52;78.53
26775;BME280;14362;51.902;7.626;2022-09-09T10:52:56;100248.75;;;20.63;76.73
26775;BME280;14362;51.902;7.626;2022-09-09T10:57:08;100237.84;;;20.75;75.96
26775;BME280;14362;51.902;7.626;2022-09-09T11:01:17;100242.28;;;20.62;73.63
26775;BME280;14362;51.902;7.626;2022-09-09T11:05:22;100240.31;;;20.83;74.03
26775;BME280;14362;51.902;7.626;2022-09-09T11:09:28;100237.44;;;21.15;69.71
26775;BME280;14362;51.902;7.626;2022-09-09T11:13:38;100231.31;;;21.41;65.56
26775;BME280;14362;51.902;7.626;2022-09-09T11:17:45;100232.50;;;21.57;65.10
26775;BME280;14362;51.902;7.626;2022-09-09T11:21:49;100225.22;;;21.60;65.29
26775;BME280;14362;51.902;7.626;2022-09-09T11:25:55;100228.88;;;21.60;65.14
26775;BME280;14362;51.902;7.626;2022-09-09T11:30:16;100224.00;;;21.43;66.00
26775;BME280;14362;51.902;7.626;2022-09-09T11:34:27;100237.81;;;21.38;65.65
26775;BME280;14362;51.902;7.626;2022-09-09T11:38:39;100231.34;;;21.23;66.68
26775;BME280;14362;51.902;7.626;2022-09-09T11:42:43;100235.41;;;21.15;66.70
26775;BME280;14362;51.902;7.626;2022-09-09T11:46:49;100237.81;;;21.27;66.31
26775;BME280;14362;51.902;7.626;2022-09-09T11:51:00;100249.16;;;21.17;66.83
26775;BME280;14362;51.902;7.626;2022-09-09T11:55:09;100244.31;;;21.24;66.94
26775;BME280;14362;51.902;7.626;2022-09-09T11:59:20;100237.00;;;21.41;63.47
26775;BME280;14362;51.902;7.626;2022-09-09T12:03:40;100237.72;;;21.72;62.91
26775;BME280;14362;51.902;7.626;2022-09-09T12:07:50;100235.28;;;21.81;60.23
26775;BME280;14362;51.902;7.626;2022-09-09T12:12:06;100239.41;;;21.60;59.89
26775;BME280;14362;51.902;7.626;2022-09-09T12:16:28;100235.31;;;21.64;59.88
26775;BME280;14362;51.902;7.626;2022-09-09T12:20:34;100229.19;;;21.86;58.96
26775;BME280;14362;51.902;7.626;2022-09-09T12:24:40;100229.97;;;21.87;58.36
26775;BME280;14362;51.902;7.626;2022-09-09T12:28:51;100227.53;;;21.89;57.77
26775;BME280;14362;51.902;7.626;2022-09-09T12:33:01;100222.09;;;22.19;58.03
26775;BME280;14362;51.902;7.626;2022-09-09T12:37:11;100210.69;;;22.36;57.57
26775;BME280;14362;51.902;7.626;2022-09-09T12:41:20;100211.00;;;22.49;57.16
26775;BME280;14362;51.902;7.626;2022-09-09T12:45:23;100223.59;;;22.48;55.15
26775;BME280;14362;51.902;7.626;2022-09-09T12:49:29;100214.31;;;22.40;54.90
26775;BME280;14362;51.902;7.626;2022-09-09T12:53:36;100207.41;;;22.41;56.32
26775;BME280;14362;51.902;7.626;2022-09-09T12:57:39;100213.94;;;22.35;55.37
26775;BME280;14362;51.902;7.626;2022-09-09T13:01:43;100205.31;;;22.49;56.31
26775;BME280;14362;51.902;7.626;2022-09-09T13:05:44;100197.28;;;22.40;55.82
26775;BME280;14362;51.902;7.626;2022-09-09T13:09:48;100195.09;;;22.58;56.11
26775;BME280;14362;51.902;7.626;2022-09-09T13:13:51;100200.84;;;22.48;55.93
26775;BME280;14362;51.902;7.626;2022-09-09T13:17:55;100190.44;;;22.24;56.25
26775;BME280;14362;51.902;7.626;2022-09-09T13:21:58;100210.00;;;22.08;57.54
26775;BME280;14362;51.902;7.626;2022-09-09T13:26:02;100241.81;;;21.65;71.44
26775;BME280;14362;51.902;7.626;2022-09-09T13:30:20;100228.94;;;21.01;78.39
26775;BME280;14362;51.902;7.626;2022-09-09T13:34:27;100220.06;;;20.95;83.42
26775;BME280;14362;51.902;7.626;2022-09-09T13:38:32;100207.06;;;21.19;88.14
26775;BME280;14362;51.902;7.626;2022-09-09T13:42:39;100194.81;;;21.57;85.87
26775;BME280;14362;51.902;7.626;2022-09-09T13:46:44;100200.44;;;21.70;82.01
26775;BME280;14362;51.902;7.626;2022-09-09T13:50:54;100195.22;;;21.66;78.60
26775;BME280;14362;51.902;7.626;2022-09-09T13:54:56;100209.81;;;21.61;72.50
26775;BME280;14362;51.902;7.626;2022-09-09T13:58:59;100210.25;;;21.42;69.85
26775;BME280;14362;51.902;7.626;2022-09-09T14:03:01;100215.94;;;21.38;69.24
26775;BME280;14362;51.902;7.626;2022-09-09T14:07:03;100205.41;;;21.35;70.85
26775;BME280;14362;51.902;7.626;2022-09-09T14:11:04;100209.44;;;21.45;70.82
26775;BME280;14362;51.902;7.626;2022-09-09T14:15:10;100218.00;;;21.20;69.43
26775;BME280;14362;51.902;7.626;2022-09-09T14:19:12;100218.00;;;21.06;69.50
26775;BME280;14362;51.902;7.626;2022-09-09T14:23:14;100252.44;;;20.84;73.48
26775;BME280;14362;51.902;7.626;2022-09-09T14:27:16;100259.97;;;20.14;89.55
26775;BME280;14362;51.902;7.626;2022-09-09T14:31:20;100264.19;;;19.73;95.14
26775;BME280;14362;51.902;7.626;2022-09-09T14:35:21;100257.50;;;19.27;100.00
26775;BME280;14362;51.902;7.626;2022-09-09T14:39:24;100274.16;;;18.96;100.00
26775;BME280;14362;51.902;7.626;2022-09-09T14:43:25;100265.16;;;18.80;100.00
26775;BME280;14362;51.902;7.626;2022-09-09T14:47:28;100268.59;;;18.59;100.00
26775;BME280;14362;51.902;7.626;2022-09-09T14:51:30;100279.81;;;18.52;100.00
26775;BME280;14362;51.902;7.626;2022-09-09T14:55:31;100267.22;;;18.43;100.00
26775;BME280;14362;51.902;7.626;2022-09-09T14:59:33;100257.47;;;18.37;100.00
26775;BME280;14362;51.902;7.626;2022-09-09T15:03:37;100242.19;;;18.42;100.00
26775;BME280;14362;51.902;7.626;2022-09-09T15:07:38;100235.09;;;18.54;100.00
26775;BME280;14362;51.902;7.626;2022-09-09T15:11:40;100239.31;;;18.78;100.00
26775;BME280;14362;51.902;7.626;2022-09-09T15:15:41;100229.84;;;19.07;100.00
26775;BME280;14362;51.902;7.626;2022-09-09T15:19:45;100229.50;;;19.12;100.00
26775;BME280;14362;51.902;7.626;2022-09-09T15:23:47;100226.31;;;19.13;100.00
26775;BME280;14362;51.902;7.626;2022-09-09T15:27:49;100231.53;;;19.11;100.00
26775;BME280;14362;51.902;7.626;2022-09-09T15:31:50;100228.25;;;19.06;100.00
26775;BME280;14362;51.902;7.626;2022-09-09T15:35:53;100212.13;;;19.10;100.00
26775;BME280;14362;51.902;7.626;2022-09-09T15:39:54;100212.25;;;19.24;100.00
26775;BME280;14362;51.902;7.626;2022-09-09T15:43:59;100207.75;;;19.16;100.00
26775;BME280;14362;51.902;7.626;2022-09-09T15:48:02;100203.25;;;19.11;100.00
26775;BME280;14362;51.902;7.626;2022-09-09T15:52:04;100215.72;;;19.07;100.00
26775;BME280;14362;51.902;7.626;2022-09-09T15:56:06;100223.31;;;18.96;100.00
26775;BME280;14362;51.902;7.626;2022-09-09T16:00:09;100220.81;;;18.84;100.00
26775;BME280;14362;51.902;7.626;2022-09-09T16:04:13;100228.03;;;18.78;100.00
26775;BME280;14362;51.902;7.626;2022-09-09T16:08:17;100220.34;;;18.75;100.00
26775;BME280;14362;51.902;7.626;2022-09-09T16:12:18;100236.47;;;18.74;100.00
26775;BME280;14362;51.902;7.626;2022-09-09T16:16:22;100238.44;;;18.67;100.00
26775;BME280;14362;51.902;7.626;2022-09-09T16:20:24;100229.91;;;18.63;100.00
26775;BME280;14362;51.902;7.626;2022-09-09T16:24:27;100241.63;;;18.65;100.00
26775;BME280;14362;51.902;7.626;2022-09-09T16:28:28;100264.56;;;18.60;100.00
26775;BME280;14362;51.902;7.626;2022-09-09T16:32:29;100259.63;;;18.47;100.00
26775;BME280;14362;51.902;7.626;2022-09-09T16:36:35;100256.69;;;18.37;100.00
26775;BME280;14362;51.902;7.626;2022-09-09T16:40:40;100247.63;;;18.21;100.00
26775;BME280;14362;51.902;7.626;2022-09-09T16:44:41;100251.53;;;18.09;100.00
26775;BME280;14362;51.902;7.626;2022-09-09T16:48:44;100252.19;;;17.99;100.00
26775;BME280;14362;51.902;7.626;2022-09-09T16:52:46;100252.53;;;17.94;100.00
26775;BME280;14362;51.902;7.626;2022-09-09T16:56:48;100264.19;;;17.89;100.00
26775;BME280;14362;51.902;7.626;2022-09-09T17:00:50;100254.38;;;17.80;100.00
26775;BME280;14362;51.902;7.626;2022-09-09T17:04:52;100255.16;;;17.77;100.00
26775;BME280;14362;51.902;7.626;2022-09-09T17:08:54;100257.84;;;17.66;100.00
26775;BME280;14362;51.902;7.626;2022-09-09T17:12:57;100252.63;;;17.68;100.00
26775;BME280;14362;51.902;7.626;2022-09-09T17:16:58;100252.63;;;17.68;100.00
26775;BME280;14362;51.902;7.626;2022-09-09T17:21:02;100257.72;;;17.59;100.00
26775;BME280;14362;51.902;7.626;2022-09-09T17:25:05;100255.75;;;17.60;100.00
26775;BME280;14362;51.902;7.626;2022-09-09T17:29:08;100262.94;;;17.57;100.00
26775;BME280;14362;51.902;7.626;2022-09-09T17:33:11;100255.63;;;17.53;100.00
26775;BME280;14362;51.902;7.626;2022-09-09T17:37:12;100259.13;;;17.43;100.00
26775;BME280;14362;51.902;7.626;2022-09-09T17:41:15;100254.53;;;17.32;100.00
26775;BME280;14362;51.902;7.626;2022-09-09T17:45:18;100259.25;;;17.28;100.00
26775;BME280;14362;51.902;7.626;2022-09-09T17:49:20;100260.69;;;17.15;100.00
26775;BME280;14362;51.902;7.626;2022-09-09T17:53:21;100264.19;;;17.08;100.00
26775;BME280;14362;51.902;7.626;2022-09-09T17:57:23;100285.03;;;17.04;100.00
26775;BME280;14362;51.902;7.626;2022-09-09T18:01:28;100286.13;;;16.96;100.00
26775;BME280;14362;51.902;7.626;2022-09-09T18:05:30;100290.00;;;16.88;100.00
26775;BME280;14362;51.902;7.626;2022-09-09T18:09:31;100286.75;;;16.86;100.00
26775;BME280;14362;51.902;7.626;2022-09-09T18:13:34;100286.25;;;16.80;100.00
26775;BME280;14362;51.902;7.626;2022-09-09T18:17:37;100288.50;;;16.71;100.00
26775;BME280;14362;51.902;7.626;2022-09-09T18:21:39;100289.63;;;16.67;100.00
26775;BME280;14362;51.902;7.626;2022-09-09T18:25:40;100290.38;;;16.64;100.00
26775;BME280;14362;51.902;7.626;2022-09-09T18:29:42;100287.97;;;16.62;100.00
26775;BME280;14362;51.902;7.626;2022-09-09T18:33:46;100296.75;;;16.61;100.00
26775;BME280;14362;51.902;7.626;2022-09-09T18:37:48;100299.22;;;16.62;100.00
26775;BME280;14362;51.902;7.626;2022-09-09T18:41:51;100306.09;;;16.65;100.00
26775;BME280;14362;51.902;7.626;2022-09-09T18:45:53;100310.41;;;16.59;100.00
26775;BME280;14362;51.902;7.626;2022-09-09T18:49:55;100310.03;;;16.60;100.00
26775;BME280;14362;51.902;7.626;2022-09-09T18:53:59;100315.66;;;16.60;100.00
26775;BME280;14362;51.902;7.626;2022-09-09T18:58:01;100309.88;;;16.53;100.00
26775;BME280;14362;51.902;7.626;2022-09-09T19:02:03;100305.44;;;16.52;100.00
26775;BME280;14362;51.902;7.626;2022-09-09T19:06:07;100306.28;;;16.53;100.00
26775;BME280;14362;51.902;7.626;2022-09-09T19:10:09;100308.19;;;16.49;100.00
26775;BME280;14362;51.902;7.626;2022-09-09T19:14:12;100306.97;;;16.46;100.00
26775;BME280;14362;51.902;7.626;2022-09-09T19:18:14;100295.63;;;16.43;100.00
26775;BME280;14362;51.902;7.626;2022-09-09T19:22:17;100301.25;;;16.43;100.00
26775;BME280;14362;51.902;7.626;2022-09-09T19:26:18;100302.88;;;16.44;100.00
26775;BME280;14362;51.902;7.626;2022-09-09T19:30:20;100306.97;;;16.46;100.00
26775;BME280;14362;51.902;7.626;2022-09-09T19:34:21;100321.91;;;16.50;100.00
26775;BME280;14362;51.902;7.626;2022-09-09T19:38:24;100327.28;;;16.59;100.00
26775;BME280;14362;51.902;7.626;2022-09-09T19:42:25;100335.41;;;16.64;100.00
26775;BME280;14362;51.902;7.626;2022-09-09T19:46:30;100328.16;;;16.63;100.00
26775;BME280;14362;51.902;7.626;2022-09-09T19:50:33;100332.69;;;16.67;100.00
26775;BME280;14362;51.902;7.626;2022-09-09T19:54:37;100342.75;;;16.68;100.00
26775;BME280;14362;51.902;7.626;2022-09-09T19:58:39;100366.16;;;16.53;100.00
26775;BME280;14362;51.902;7.626;2022-09-09T20:02:41;100358.53;;;16.54;100.00
26775;BME280;14362;51.902;7.626;2022-09-09T20:06:43;100361.06;;;16.59;100.00
26775;BME280;14362;51.902;7.626;2022-09-09T20:10:50;100367.94;;;16.61;100.00
26775;BME280;14362;51.902;7.626;2022-09-09T20:14:52;100352.69;;;16.62;100.00
26775;BME280;14362;51.902;7.626;2022-09-09T20:18:55;100355.09;;;16.64;100.00
26775;BME280;14362;51.902;7.626;2022-09-09T20:22:57;100349.47;;;16.64;100.00
26775;BME280;14362;51.902;7.626;2022-09-09T20:27:00;100352.38;;;16.67;100.00
26775;BME280;14362;51.902;7.626;2022-09-09T20:31:03;100351.09;;;16.65;100.00
26775;BME280;14362;51.902;7.626;2022-09-09T20:35:04;100351.53;;;16.67;100.00
26775;BME280;14362;51.902;7.626;2022-09-09T20:39:09;100354.38;;;16.67;100.00
26775;BME280;14362;51.902;7.626;2022-09-09T20:43:12;100360.00;;;16.67;100.00
26775;BME280;14362;51.902;7.626;2022-09-09T20:47:13;100366.06;;;16.69;100.00
26775;BME280;14362;51.902;7.626;2022-09-09T20:51:16;100364.56;;;16.75;100.00
26775;BME280;14362;51.902;7.626;2022-09-09T20:55:18;100362.13;;;16.73;100.00
26775;BME280;14362;51.902;7.626;2022-09-09T20:59:23;100360.44;;;16.69;100.00
26775;BME280;14362;51.902;7.626;2022-09-09T21:03:25;100362.50;;;16.72;100.00
26775;BME280;14362;51.902;7.626;2022-09-09T21:07:29;100355.63;;;16.69;100.00